createdAt,value
2018-01-06T00:02:16.579Z,24.87
2018-01-06T00:04:44.103Z,33.60
2018-01-06T00:07:11.718Z,38.33
2018-01-06T00:09:39.236Z,39.37
2018-01-06T00:12:06.763Z,36.43
2018-01-06T00:14:34.350Z,35.13
2018-01-06T00:17:01.909Z,37.43
2018-01-06T00:19:29.475Z,37.30
2018-01-06T00:21:57.000Z,47.33
2018-01-06T00:24:24.553Z,37.23
2018-01-06T00:26:52.166Z,32.00
2018-01-06T00:29:19.683Z,35.53
2018-01-06T00:31:47.292Z,41.87
2018-01-06T00:34:14.913Z,36.70
2018-01-06T00:36:42.701Z,36.80
2018-01-06T00:39:10.213Z,40.43
2018-01-06T00:41:37.746Z,35.90
2018-01-06T00:44:05.264Z,36.47
2018-01-06T00:46:32.803Z,37.13
2018-01-06T00:49:00.410Z,28.20
2018-01-06T00:51:28.012Z,29.20
2018-01-06T00:53:55.724Z,35.63
2018-01-06T00:56:23.296Z,36.60
2018-01-06T00:58:50.858Z,31.80
2018-01-06T01:01:18.587Z,34.60
2018-01-06T01:03:47.386Z,31.00
2018-01-06T01:06:15.596Z,32.10
2018-01-06T01:08:43.350Z,36.20
2018-01-06T01:11:11.089Z,38.47
2018-01-06T01:13:38.866Z,33.13
2018-01-06T01:16:06.436Z,38.13
2018-01-06T01:18:33.946Z,35.20
2018-01-06T01:21:01.492Z,35.20
2018-01-06T01:23:29.306Z,35.30
2018-01-06T01:25:56.918Z,27.33
2018-01-06T01:28:24.431Z,30.60
2018-01-06T01:30:51.978Z,33.30
2018-01-06T01:33:19.521Z,26.03
2018-01-06T01:35:47.177Z,34.10
2018-01-06T01:38:14.720Z,25.83
2018-01-06T01:40:42.408Z,25.97
2018-01-06T01:43:09.951Z,32.83
2018-01-06T01:45:37.529Z,34.43
2018-01-06T01:48:05.051Z,36.53
2018-01-06T01:50:32.628Z,39.60
2018-01-06T01:53:00.264Z,36.43
2018-01-06T01:55:27.924Z,33.23
2018-01-06T01:57:55.483Z,34.20
2018-01-06T02:00:23.074Z,36.80
2018-01-06T02:02:50.619Z,42.60
2018-01-06T02:05:18.217Z,29.83
2018-01-06T02:07:45.776Z,36.23
2018-01-06T02:10:13.338Z,32.00
2018-01-06T02:12:40.941Z,35.43
2018-01-06T02:15:08.459Z,40.00
2018-01-06T02:17:36.017Z,39.23
2018-01-06T02:20:03.598Z,37.73
2018-01-06T02:22:31.202Z,35.47
2018-01-06T02:24:58.726Z,35.93
2018-01-06T02:27:26.244Z,33.73
2018-01-06T02:29:53.828Z,47.80
2018-01-06T02:32:21.372Z,43.53
2018-01-06T02:34:48.946Z,35.53
2018-01-06T02:37:16.473Z,38.80
2018-01-06T02:39:44.094Z,32.00
2018-01-06T02:42:11.664Z,39.13
2018-01-06T02:44:39.194Z,35.40
2018-01-06T02:47:06.817Z,31.47
2018-01-06T02:49:34.340Z,32.93
2018-01-06T02:52:01.966Z,40.53
2018-01-06T02:54:29.516Z,43.73
2018-01-06T02:56:57.080Z,32.40
2018-01-06T02:59:24.628Z,35.83
2018-01-06T03:01:52.214Z,40.20
2018-01-06T03:04:19.766Z,38.33
2018-01-06T03:06:47.331Z,36.63
2018-01-06T03:09:15.046Z,44.53
2018-01-06T03:11:42.612Z,34.50
2018-01-06T03:14:10.210Z,36.10
2018-01-06T03:16:37.859Z,33.67
2018-01-06T03:19:05.437Z,28.97
2018-01-06T03:21:33.164Z,31.67
2018-01-06T03:24:00.716Z,37.43
2018-01-06T03:26:28.250Z,34.70
2018-01-06T03:28:55.810Z,36.30
2018-01-06T03:31:23.362Z,42.87
2018-01-06T03:33:50.921Z,37.87
2018-01-06T03:36:18.559Z,38.70
2018-01-06T03:38:46.108Z,41.27
2018-01-06T03:41:13.694Z,39.23
2018-01-06T03:43:41.346Z,35.87
2018-01-06T03:46:08.938Z,36.97
2018-01-06T03:48:36.602Z,39.90
2018-01-06T03:51:04.266Z,42.87
2018-01-06T03:53:31.829Z,37.23
2018-01-06T03:56:00.385Z,40.73
2018-01-06T03:58:27.944Z,49.07
2018-01-06T04:00:55.486Z,39.57
2018-01-06T04:03:23.014Z,50.57
2018-01-06T04:05:50.734Z,40.60
2018-01-06T04:08:18.288Z,47.60
2018-01-06T04:10:45.810Z,48.63
2018-01-06T04:13:13.401Z,46.23
2018-01-06T04:15:40.920Z,49.53
2018-01-06T04:18:08.440Z,43.90
2018-01-06T04:20:36.013Z,44.50
2018-01-06T04:23:03.552Z,51.37
2018-01-06T04:25:31.092Z,63.33
2018-01-06T04:27:58.632Z,51.00
2018-01-06T04:30:26.200Z,49.80
2018-01-06T04:32:53.859Z,55.87
2018-01-06T04:35:21.474Z,55.30
2018-01-06T04:37:49.047Z,55.70
2018-01-06T04:40:16.604Z,56.80
2018-01-06T04:42:44.189Z,43.27
2018-01-06T04:45:11.754Z,51.87
2018-01-06T04:47:39.373Z,56.57
2018-01-06T04:50:06.953Z,53.13
2018-01-06T04:52:34.480Z,48.00
2018-01-06T04:55:02.052Z,67.77
2018-01-06T04:57:29.631Z,53.03
2018-01-06T04:59:57.189Z,55.17
2018-01-06T05:02:24.781Z,51.50
2018-01-06T05:04:52.349Z,61.93
2018-01-06T05:07:19.905Z,72.27
2018-01-06T05:09:47.494Z,47.67
2018-01-06T05:12:15.004Z,55.50
2018-01-06T05:14:42.580Z,77.77
2018-01-06T05:17:10.109Z,62.50
2018-01-06T05:19:37.618Z,64.03
2018-01-06T05:22:05.201Z,70.40
2018-01-06T05:24:32.740Z,60.70
2018-01-06T05:27:00.327Z,64.27
2018-01-06T05:29:27.915Z,72.47
2018-01-06T05:31:55.525Z,57.47
2018-01-06T05:34:23.094Z,60.40
2018-01-06T05:36:50.858Z,69.30
2018-01-06T05:39:18.438Z,60.93
2018-01-06T05:41:46.037Z,59.13
2018-01-06T05:44:13.653Z,65.83
2018-01-06T05:46:41.275Z,75.90
2018-01-06T05:49:08.835Z,63.70
2018-01-06T05:51:36.356Z,64.80
2018-01-06T05:54:03.911Z,68.30
2018-01-06T05:56:31.644Z,67.13
2018-01-06T05:58:59.175Z,61.80
2018-01-06T06:01:26.732Z,70.53
2018-01-06T06:03:54.346Z,79.10
2018-01-06T06:06:21.871Z,59.57
2018-01-06T06:08:49.392Z,71.60
2018-01-06T06:11:16.927Z,61.73
2018-01-06T06:13:44.499Z,63.63
2018-01-06T06:16:12.070Z,61.53
2018-01-06T06:18:39.627Z,71.30
2018-01-06T06:21:07.192Z,66.63
2018-01-06T06:23:34.807Z,68.23
2018-01-06T06:26:02.333Z,65.17
2018-01-06T06:28:29.989Z,67.70
2018-01-06T06:30:57.581Z,69.53
2018-01-06T06:33:25.107Z,66.87
2018-01-06T06:35:52.718Z,82.50
2018-01-06T06:38:20.240Z,64.50
2018-01-06T06:40:47.756Z,67.63
2018-01-06T06:43:15.352Z,75.97
2018-01-06T06:45:42.914Z,76.47
2018-01-06T06:48:10.473Z,78.27
2018-01-06T06:50:38.027Z,83.00
2018-01-06T06:53:05.540Z,69.03
2018-01-06T06:55:33.133Z,89.00
2018-01-06T06:58:00.655Z,85.50
2018-01-06T07:00:28.333Z,79.40
2018-01-06T07:02:56.116Z,72.13
2018-01-06T07:05:23.688Z,69.10
2018-01-06T07:07:51.458Z,74.63
2018-01-06T07:10:19.008Z,76.87
2018-01-06T07:12:46.537Z,64.80
2018-01-06T07:15:14.085Z,77.53
2018-01-06T07:17:41.594Z,72.60
2018-01-06T07:20:09.168Z,68.30
2018-01-06T07:22:37.590Z,70.87
2018-01-06T07:25:05.400Z,74.00
2018-01-06T07:27:33.067Z,77.40
2018-01-06T07:30:00.601Z,68.83
2018-01-06T07:32:28.160Z,64.70
2018-01-06T07:34:55.999Z,61.77
2018-01-06T07:37:23.518Z,69.63
2018-01-06T07:39:51.027Z,68.10
2018-01-06T07:42:18.601Z,69.23
2018-01-06T07:44:46.115Z,63.10
2018-01-06T07:47:13.702Z,61.23
2018-01-06T07:49:41.210Z,61.43
2018-01-06T07:52:08.766Z,77.07
2018-01-06T07:54:36.279Z,65.00
2018-01-06T07:57:03.791Z,76.40
2018-01-06T07:59:31.378Z,67.43
2018-01-06T08:01:58.917Z,67.87
2018-01-06T08:04:26.469Z,75.93
2018-01-06T08:06:54.119Z,77.50
2018-01-06T08:09:21.739Z,101.63
2018-01-06T08:11:49.280Z,87.90
2018-01-06T08:14:16.806Z,89.53
2018-01-06T08:16:44.440Z,81.00
2018-01-06T08:19:12.104Z,72.03
2018-01-06T08:21:39.827Z,91.27
2018-01-06T08:24:07.385Z,84.47
2018-01-06T08:26:34.899Z,91.87
2018-01-06T08:29:02.472Z,63.53
2018-01-06T08:31:30.039Z,69.20
2018-01-06T08:33:57.854Z,73.03
2018-01-06T08:36:25.507Z,74.70
2018-01-06T08:38:53.027Z,69.23
2018-01-06T08:41:20.588Z,70.63
2018-01-06T08:43:48.238Z,59.63
2018-01-06T08:46:15.816Z,63.23
2018-01-06T08:48:43.416Z,66.83
2018-01-06T08:51:10.981Z,68.17
2018-01-06T08:53:38.541Z,78.27
2018-01-06T08:56:06.209Z,79.23
2018-01-06T08:58:33.801Z,66.87
2018-01-06T09:01:01.365Z,60.33
2018-01-06T09:03:29.052Z,64.03
2018-01-06T09:05:56.612Z,70.33
2018-01-06T09:08:24.344Z,59.13
2018-01-06T09:10:51.937Z,64.47
2018-01-06T09:13:19.461Z,67.33
2018-01-06T09:15:47.203Z,57.13
2018-01-06T09:18:14.822Z,74.07
2018-01-06T09:20:42.344Z,53.47
2018-01-06T09:23:10.026Z,61.93
2018-01-06T09:25:37.641Z,69.30
2018-01-06T09:28:05.176Z,62.27
2018-01-06T09:30:32.755Z,64.53
2018-01-06T09:33:00.347Z,60.43
2018-01-06T09:35:27.925Z,57.20
2018-01-06T09:37:55.445Z,55.93
2018-01-06T09:40:23.000Z,56.80
2018-01-06T09:42:50.608Z,53.70
2018-01-06T09:45:18.156Z,52.83
2018-01-06T09:47:45.688Z,52.13
2018-01-06T09:50:13.231Z,45.10
2018-01-06T09:52:40.789Z,46.43
2018-01-06T09:55:08.361Z,46.70
2018-01-06T09:57:35.918Z,61.13
2018-01-06T10:00:03.468Z,45.13
2018-01-06T10:02:31.022Z,48.77
2018-01-06T10:04:58.610Z,45.03
2018-01-06T10:07:26.246Z,48.70
2018-01-06T10:09:53.826Z,38.00
2018-01-06T10:12:21.347Z,48.67
2018-01-06T10:14:48.961Z,46.77
2018-01-06T10:17:16.715Z,47.63
2018-01-06T10:19:44.282Z,42.73
2018-01-06T10:22:11.866Z,114.27
2018-01-06T10:24:39.433Z,118.23
2018-01-06T10:27:06.987Z,251.90
2018-01-06T10:29:34.560Z,51.67
2018-01-06T10:32:02.188Z,136.23
2018-01-06T10:34:29.708Z,95.10
2018-01-06T10:36:57.312Z,120.90
2018-01-06T10:39:25.074Z,50.57
2018-01-06T10:41:52.610Z,53.03
2018-01-06T10:44:20.235Z,53.10
2018-01-06T10:46:47.816Z,51.57
2018-01-06T10:49:15.381Z,53.13
2018-01-06T10:51:42.928Z,51.20
2018-01-06T10:54:10.520Z,51.37
2018-01-06T10:56:38.032Z,51.77
2018-01-06T10:59:05.893Z,55.90
2018-01-06T11:01:39.293Z,43.90
2018-01-06T11:04:06.915Z,52.63
2018-01-06T11:06:34.502Z,48.00
2018-01-06T11:09:02.025Z,44.30
2018-01-06T11:11:29.596Z,45.17
2018-01-06T11:13:57.158Z,47.77
2018-01-06T11:16:24.751Z,40.80
2018-01-06T11:18:52.329Z,46.67
2018-01-06T11:21:19.864Z,48.57
2018-01-06T11:23:47.420Z,46.77
2018-01-06T11:26:14.978Z,42.80
2018-01-06T11:28:42.567Z,38.57
2018-01-06T11:31:10.084Z,48.47
2018-01-06T11:33:37.604Z,41.50
2018-01-06T11:36:05.418Z,47.13
2018-01-06T11:38:32.989Z,47.43
2018-01-06T11:41:00.567Z,56.93
2018-01-06T11:43:28.104Z,46.00
2018-01-06T11:45:55.632Z,52.53
2018-01-06T11:48:23.176Z,46.60
2018-01-06T11:50:50.780Z,49.47
2018-01-06T11:53:18.334Z,57.80
2018-01-06T11:55:45.897Z,52.30
2018-01-06T11:58:13.465Z,65.33
2018-01-06T12:00:41.009Z,53.40
2018-01-06T12:03:08.566Z,45.27
2018-01-06T12:05:36.114Z,49.93
2018-01-06T12:08:03.759Z,53.27
2018-01-06T12:10:31.319Z,46.07
2018-01-06T12:12:58.880Z,42.50
2018-01-06T12:15:26.574Z,43.33
2018-01-06T12:17:54.243Z,51.50
2018-01-06T12:20:21.933Z,49.87
2018-01-06T12:22:49.518Z,47.53
2018-01-06T12:25:17.124Z,59.53
2018-01-06T12:27:44.698Z,54.17
2018-01-06T12:30:12.436Z,53.83
2018-01-06T12:32:40.165Z,60.20
2018-01-06T12:35:07.725Z,51.00
2018-01-06T12:37:35.342Z,48.60
2018-01-06T12:40:03.006Z,51.03
2018-01-06T12:42:30.560Z,53.30
2018-01-06T12:44:58.146Z,51.23
2018-01-06T12:47:25.668Z,50.67
2018-01-06T12:49:53.247Z,38.83
2018-01-06T12:52:20.798Z,42.07
2018-01-06T12:54:48.352Z,46.93
2018-01-06T12:57:15.974Z,30.83
2018-01-06T12:59:43.545Z,39.17
2018-01-06T13:02:11.062Z,34.33
2018-01-06T13:04:38.674Z,41.23
2018-01-06T13:07:06.186Z,37.80
2018-01-06T13:09:33.716Z,40.80
2018-01-06T13:12:01.317Z,38.13
2018-01-06T13:14:28.891Z,34.37
2018-01-06T13:16:56.449Z,50.80
2018-01-06T13:19:24.193Z,36.97
2018-01-06T13:21:51.758Z,62.63
2018-01-06T13:24:19.446Z,59.03
2018-01-06T13:26:47.057Z,44.53
2018-01-06T13:29:14.629Z,48.03
2018-01-06T13:31:42.173Z,38.57
2018-01-06T13:34:09.758Z,52.33
2018-01-06T13:36:37.330Z,57.90
2018-01-06T13:39:05.067Z,41.60
2018-01-06T13:41:32.586Z,51.53
2018-01-06T13:44:00.177Z,41.00
2018-01-06T13:46:27.715Z,64.93
2018-01-06T13:48:55.354Z,47.63
2018-01-06T13:51:22.895Z,46.30
2018-01-06T13:53:50.497Z,46.73
2018-01-06T13:56:18.061Z,42.70
2018-01-06T13:58:45.605Z,44.87
2018-01-06T14:01:13.211Z,48.07
2018-01-06T14:03:40.760Z,49.03
2018-01-06T14:06:08.307Z,57.30
2018-01-06T14:08:35.859Z,47.43
2018-01-06T14:11:03.396Z,48.60
2018-01-06T14:13:31.002Z,52.17
2018-01-06T14:15:58.600Z,49.20
2018-01-06T14:18:26.112Z,60.83
2018-01-06T14:20:53.669Z,54.03
2018-01-06T14:23:21.302Z,50.70
2018-01-06T14:25:48.850Z,51.63
2018-01-06T14:28:16.380Z,67.53
2018-01-06T14:30:43.957Z,70.87
2018-01-06T14:33:11.480Z,62.20
2018-01-06T14:35:39.025Z,74.17
2018-01-06T14:38:06.536Z,75.13
2018-01-06T14:40:34.168Z,71.93
2018-01-06T14:43:01.725Z,73.83
2018-01-06T14:45:29.324Z,61.47
2018-01-06T14:47:56.885Z,58.60
2018-01-06T14:50:24.420Z,71.17
2018-01-06T14:52:51.973Z,73.93
2018-01-06T14:55:19.548Z,66.17
2018-01-06T14:57:47.056Z,60.50
2018-01-06T15:00:15.548Z,61.77
2018-01-06T15:02:43.428Z,66.40
2018-01-06T15:05:10.967Z,67.27
2018-01-06T15:07:38.845Z,81.50
2018-01-06T15:10:06.428Z,88.93
2018-01-06T15:12:33.944Z,78.93
2018-01-06T15:15:01.497Z,96.70
2018-01-06T15:17:29.111Z,88.20
2018-01-06T15:19:56.678Z,145.23
2018-01-06T15:22:24.281Z,121.83
2018-01-06T15:24:52.060Z,73.80
2018-01-06T15:27:19.747Z,120.10
2018-01-06T15:29:47.414Z,89.27
2018-01-06T15:32:14.986Z,83.30
2018-01-06T15:34:42.535Z,71.63
2018-01-06T15:37:10.118Z,104.07
2018-01-06T15:39:37.673Z,60.77
2018-01-06T15:42:05.250Z,90.50
2018-01-06T15:44:32.818Z,51.53
2018-01-06T15:47:00.709Z,67.47
2018-01-06T15:49:28.230Z,74.80
2018-01-06T15:51:55.796Z,53.07
2018-01-06T15:54:23.352Z,46.13
2018-01-06T15:56:50.903Z,36.87
2018-01-06T15:59:18.458Z,13.00
2018-01-06T16:01:46.038Z,12.10
2018-01-06T16:04:13.556Z,13.47
2018-01-06T16:06:41.148Z,6.80
2018-01-06T16:09:08.689Z,6.00
2018-01-06T16:11:36.241Z,3.83
2018-01-06T16:14:03.793Z,6.13
2018-01-06T16:16:31.374Z,13.67
2018-01-06T16:18:58.930Z,7.63
2018-01-06T16:21:26.542Z,3.97
2018-01-06T16:23:54.060Z,9.27
2018-01-06T16:26:21.763Z,10.83
2018-01-06T16:28:49.425Z,6.60
2018-01-06T16:31:17.034Z,13.00
2018-01-06T16:33:44.581Z,8.07
2018-01-06T16:36:12.135Z,24.20
2018-01-06T16:38:39.934Z,13.90
2018-01-06T16:41:07.487Z,8.83
2018-01-06T16:43:35.053Z,7.80
2018-01-06T16:46:02.568Z,11.70
2018-01-06T16:48:30.163Z,11.00
2018-01-06T16:50:57.710Z,10.97
2018-01-06T16:53:25.267Z,15.30
2018-01-06T16:55:52.838Z,7.80
2018-01-06T16:58:20.394Z,6.50
2018-01-06T17:00:48.003Z,4.20
2018-01-06T17:03:15.637Z,3.33
2018-01-06T17:05:43.224Z,8.00
2018-01-06T17:08:10.888Z,7.73
2018-01-06T17:10:38.473Z,5.10
2018-01-06T17:13:06.000Z,7.73
2018-01-06T17:15:33.546Z,6.00
2018-01-06T17:18:01.090Z,3.80
2018-01-06T17:20:28.648Z,7.73
2018-01-06T17:22:56.189Z,4.13
2018-01-06T17:25:23.723Z,6.43
2018-01-06T17:27:51.531Z,10.60
2018-01-06T17:30:19.048Z,13.60
2018-01-06T17:32:46.638Z,17.47
2018-01-06T17:35:14.185Z,16.37
2018-01-06T17:37:41.745Z,14.30
2018-01-06T17:40:09.292Z,8.20
2018-01-06T17:42:36.870Z,7.30
2018-01-06T17:45:04.517Z,5.77
2018-01-06T17:47:32.114Z,7.07
2018-01-06T17:49:59.635Z,6.90
2018-01-06T17:52:27.185Z,7.30
2018-01-06T17:54:54.935Z,10.73
2018-01-06T17:57:22.520Z,6.37
2018-01-06T17:59:50.069Z,10.13
2018-01-06T18:02:17.594Z,8.83
2018-01-06T18:04:45.131Z,8.10
2018-01-06T18:07:12.679Z,7.83
2018-01-06T18:09:40.364Z,6.90
2018-01-06T18:12:08.148Z,7.80
2018-01-06T18:14:35.660Z,7.00
2018-01-06T18:17:03.348Z,6.40
2018-01-06T18:19:31.177Z,8.13
2018-01-06T18:21:58.697Z,12.33
2018-01-06T18:24:26.279Z,7.07
2018-01-06T18:26:53.820Z,11.53
2018-01-06T18:29:21.364Z,10.93
2018-01-06T18:31:49.040Z,9.70
2018-01-06T18:34:16.617Z,9.50
2018-01-06T18:36:44.139Z,7.27
2018-01-06T18:39:11.680Z,10.70
2018-01-06T18:41:39.327Z,8.63
2018-01-06T18:44:06.843Z,9.33
2018-01-06T18:46:34.343Z,7.97
2018-01-06T18:49:01.923Z,4.80
2018-01-06T18:51:29.445Z,6.17
2018-01-06T18:53:56.946Z,9.60
2018-01-06T18:56:24.518Z,7.67
2018-01-06T18:58:52.057Z,7.60
2018-01-06T19:01:19.621Z,7.60
2018-01-06T19:03:47.250Z,9.30
2018-01-06T19:06:14.968Z,3.80
2018-01-06T19:08:42.514Z,5.07
2018-01-06T19:11:10.099Z,7.30
2018-01-06T19:13:38.652Z,4.87
2018-01-06T19:16:06.245Z,7.47
2018-01-06T19:18:33.775Z,6.23
2018-01-06T19:21:01.350Z,8.70
2018-01-06T19:23:28.905Z,5.00
2018-01-06T19:25:56.528Z,9.83
2018-01-06T19:28:24.245Z,6.57
2018-01-06T19:30:51.820Z,11.00
2018-01-06T19:33:19.363Z,16.80
2018-01-06T19:35:46.964Z,12.53
2018-01-06T19:38:14.518Z,10.73
2018-01-06T19:40:42.033Z,11.00
2018-01-06T19:43:09.790Z,10.37
2018-01-06T19:45:37.455Z,10.13
2018-01-06T19:48:05.000Z,10.03
2018-01-06T19:50:32.552Z,7.90
2018-01-06T19:53:00.150Z,9.70
2018-01-06T19:55:27.663Z,10.30
2018-01-06T19:57:55.176Z,10.37
2018-01-06T20:00:22.898Z,8.70
2018-01-06T20:02:50.500Z,14.80
2018-01-06T20:05:18.011Z,13.87
2018-01-06T20:07:45.616Z,10.20
2018-01-06T20:10:13.163Z,10.17
2018-01-06T20:12:40.719Z,9.53
2018-01-06T20:15:08.323Z,10.73
2018-01-06T20:17:35.920Z,13.10
2018-01-06T20:20:03.554Z,11.47
2018-01-06T20:22:31.087Z,12.00
2018-01-06T20:24:58.628Z,10.70
2018-01-06T20:27:26.408Z,16.20
2018-01-06T20:29:54.064Z,27.67
2018-01-06T20:32:21.824Z,11.90
2018-01-06T20:34:49.638Z,10.10
2018-01-06T20:37:17.165Z,11.10
2018-01-06T20:39:44.879Z,8.77
2018-01-06T20:42:12.392Z,10.30
2018-01-06T20:44:40.060Z,10.80
2018-01-06T20:47:07.653Z,11.70
2018-01-06T20:49:35.189Z,10.77
2018-01-06T20:52:02.771Z,12.17
2018-01-06T20:54:30.337Z,12.47
2018-01-06T20:56:57.954Z,14.93
2018-01-06T20:59:25.544Z,19.23
2018-01-06T21:01:53.058Z,11.93
2018-01-06T21:04:20.717Z,12.00
2018-01-06T21:06:48.278Z,11.27
2018-01-06T21:09:15.858Z,11.37
2018-01-06T21:11:43.541Z,12.30
2018-01-06T21:14:11.093Z,8.27
2018-01-06T21:16:38.670Z,11.13
2018-01-06T21:19:06.180Z,10.20
2018-01-06T21:21:33.722Z,11.93
2018-01-06T21:24:01.260Z,10.67
2018-01-06T21:26:28.960Z,11.40
2018-01-06T21:28:56.552Z,15.30
2018-01-06T21:31:24.201Z,12.23
2018-01-06T21:33:52.771Z,9.00
2018-01-06T21:36:20.501Z,13.57
2018-01-06T21:38:48.172Z,12.77
2018-01-06T21:41:15.831Z,28.97
2018-01-06T21:43:43.382Z,17.53
2018-01-06T21:46:10.906Z,19.80
2018-01-06T21:48:38.494Z,9.70
2018-01-06T21:51:06.007Z,16.13
2018-01-06T21:53:33.545Z,25.13
2018-01-06T21:56:01.157Z,14.80
2018-01-06T21:58:28.716Z,12.37
2018-01-06T22:00:56.293Z,15.57
2018-01-06T22:03:23.855Z,15.57
2018-01-06T22:05:51.470Z,18.50
2018-01-06T22:08:18.996Z,15.03
2018-01-06T22:10:46.569Z,15.20
2018-01-06T22:13:14.080Z,14.23
2018-01-06T22:15:41.644Z,16.67
2018-01-06T22:18:09.447Z,18.37
2018-01-06T22:20:37.169Z,12.30
2018-01-06T22:23:04.757Z,13.53
2018-01-06T22:25:32.338Z,12.50
2018-01-06T22:28:00.145Z,14.60
2018-01-06T22:30:27.817Z,14.77
2018-01-06T22:32:55.345Z,20.57
2018-01-06T22:35:22.931Z,13.20
2018-01-06T22:37:50.480Z,16.93
2018-01-06T22:40:18.019Z,15.70
2018-01-06T22:42:45.527Z,17.83
2018-01-06T22:45:13.121Z,15.10
2018-01-06T22:47:40.640Z,21.60
2018-01-06T22:50:08.369Z,17.47
2018-01-06T22:52:35.925Z,22.67
2018-01-06T22:55:03.464Z,22.67
2018-01-06T22:57:31.000Z,15.50
2018-01-06T22:59:58.547Z,16.20
2018-01-06T23:02:26.164Z,21.80
2018-01-06T23:04:53.738Z,17.50
2018-01-06T23:07:21.291Z,18.03
2018-01-06T23:09:48.845Z,20.50
2018-01-06T23:12:16.428Z,19.13
2018-01-06T23:14:44.139Z,13.70
2018-01-06T23:17:11.875Z,19.70
2018-01-06T23:19:39.691Z,22.23
2018-01-06T23:22:07.477Z,16.73
2018-01-06T23:24:35.038Z,21.63
2018-01-06T23:27:02.579Z,20.00
2018-01-06T23:29:30.092Z,19.87
2018-01-06T23:31:57.862Z,25.97
2018-01-06T23:34:25.440Z,26.27
2018-01-06T23:36:52.976Z,21.23
2018-01-06T23:39:20.528Z,23.93
2018-01-06T23:41:48.125Z,27.93
2018-01-06T23:44:15.701Z,14.30
2018-01-06T23:46:43.322Z,29.37
2018-01-06T23:49:10.934Z,19.87
2018-01-06T23:51:38.494Z,24.83
2018-01-06T23:54:06.017Z,17.87
2018-01-06T23:56:33.670Z,19.87
2018-01-06T23:59:01.227Z,22.17
